sensor_id;sensor_type;location;lat;lon;timestamp;P1;durP1;ratioP1;P2;durP2;ratioP2
46753;SDS011;32500;50.620;3.400;2024-03-06T00:00:47;149.77;;;58.45;;
46753;SDS011;32500;50.620;3.400;2024-03-06T00:03:13;149.95;;;58.35;;
46753;SDS011;32500;50.620;3.400;2024-03-06T00:05:39;151.20;;;58.70;;
46753;SDS011;32500;50.620;3.400;2024-03-06T00:08:04;148.95;;;57.75;;
46753;SDS011;32500;50.620;3.400;2024-03-06T00:10:30;148.80;;;57.72;;
46753;SDS011;32500;50.620;3.400;2024-03-06T00:12:56;148.15;;;57.55;;
46753;SDS011;32500;50.620;3.400;2024-03-06T00:15:22;151.85;;;58.28;;
46753;SDS011;32500;50.620;3.400;2024-03-06T00:17:48;147.57;;;57.83;;
46753;SDS011;32500;50.620;3.400;2024-03-06T00:20:14;148.93;;;57.90;;
46753;SDS011;32500;50.620;3.400;2024-03-06T00:22:40;149.88;;;57.70;;
46753;SDS011;32500;50.620;3.400;2024-03-06T00:25:05;148.75;;;57.63;;
46753;SDS011;32500;50.620;3.400;2024-03-06T00:27:33;147.93;;;57.85;;
46753;SDS011;32500;50.620;3.400;2024-03-06T00:29:59;148.77;;;57.70;;
46753;SDS011;32500;50.620;3.400;2024-03-06T00:32:24;146.77;;;56.90;;
46753;SDS011;32500;50.620;3.400;2024-03-06T00:34:50;147.60;;;57.10;;
46753;SDS011;32500;50.620;3.400;2024-03-06T00:37:16;148.68;;;57.30;;
46753;SDS011;32500;50.620;3.400;2024-03-06T00:39:42;147.80;;;57.25;;
46753;SDS011;32500;50.620;3.400;2024-03-06T00:42:08;148.00;;;57.45;;
46753;SDS011;32500;50.620;3.400;2024-03-06T00:44:35;147.70;;;57.30;;
46753;SDS011;32500;50.620;3.400;2024-03-06T00:47:00;148.63;;;57.35;;
46753;SDS011;32500;50.620;3.400;2024-03-06T00:49:26;148.32;;;57.17;;
46753;SDS011;32500;50.620;3.400;2024-03-06T00:51:51;147.70;;;57.67;;
46753;SDS011;32500;50.620;3.400;2024-03-06T00:54:17;148.10;;;57.67;;
46753;SDS011;32500;50.620;3.400;2024-03-06T00:56:43;147.95;;;57.50;;
46753;SDS011;32500;50.620;3.400;2024-03-06T00:59:08;147.52;;;57.30;;
46753;SDS011;32500;50.620;3.400;2024-03-06T01:01:34;146.85;;;57.20;;
46753;SDS011;32500;50.620;3.400;2024-03-06T01:04:00;147.57;;;57.35;;
46753;SDS011;32500;50.620;3.400;2024-03-06T01:06:25;148.95;;;56.90;;
46753;SDS011;32500;50.620;3.400;2024-03-06T01:08:51;147.13;;;57.08;;
46753;SDS011;32500;50.620;3.400;2024-03-06T01:11:17;145.90;;;56.80;;
46753;SDS011;32500;50.620;3.400;2024-03-06T01:13:42;147.77;;;57.20;;
46753;SDS011;32500;50.620;3.400;2024-03-06T01:16:08;146.10;;;57.13;;
46753;SDS011;32500;50.620;3.400;2024-03-06T01:18:34;148.30;;;57.20;;
46753;SDS011;32500;50.620;3.400;2024-03-06T01:21:02;147.05;;;56.95;;
46753;SDS011;32500;50.620;3.400;2024-03-06T01:23:28;146.02;;;56.80;;
46753;SDS011;32500;50.620;3.400;2024-03-06T01:25:54;147.35;;;57.30;;
46753;SDS011;32500;50.620;3.400;2024-03-06T01:28:19;149.65;;;56.75;;
46753;SDS011;32500;50.620;3.400;2024-03-06T01:30:45;146.18;;;56.83;;
46753;SDS011;32500;50.620;3.400;2024-03-06T01:33:11;147.70;;;57.53;;
46753;SDS011;32500;50.620;3.400;2024-03-06T01:35:37;146.50;;;56.90;;
46753;SDS011;32500;50.620;3.400;2024-03-06T01:38:02;146.48;;;56.58;;
46753;SDS011;32500;50.620;3.400;2024-03-06T01:40:28;146.10;;;56.83;;
46753;SDS011;32500;50.620;3.400;2024-03-06T01:42:54;146.68;;;56.95;;
46753;SDS011;32500;50.620;3.400;2024-03-06T01:45:20;146.35;;;56.83;;
46753;SDS011;32500;50.620;3.400;2024-03-06T01:47:46;146.52;;;56.78;;
46753;SDS011;32500;50.620;3.400;2024-03-06T01:50:11;146.27;;;56.78;;
46753;SDS011;32500;50.620;3.400;2024-03-06T01:52:38;146.40;;;57.13;;
46753;SDS011;32500;50.620;3.400;2024-03-06T01:55:07;146.43;;;56.75;;
46753;SDS011;32500;50.620;3.400;2024-03-06T01:57:34;145.30;;;56.55;;
46753;SDS011;32500;50.620;3.400;2024-03-06T02:00:01;146.02;;;56.55;;
46753;SDS011;32500;50.620;3.400;2024-03-06T02:02:28;146.07;;;56.83;;
46753;SDS011;32500;50.620;3.400;2024-03-06T02:04:55;145.35;;;56.63;;
46753;SDS011;32500;50.620;3.400;2024-03-06T02:07:22;144.73;;;56.22;;
46753;SDS011;32500;50.620;3.400;2024-03-06T02:09:49;145.35;;;56.75;;
46753;SDS011;32500;50.620;3.400;2024-03-06T02:12:15;145.07;;;56.20;;
46753;SDS011;32500;50.620;3.400;2024-03-06T02:14:41;146.55;;;56.75;;
46753;SDS011;32500;50.620;3.400;2024-03-06T02:17:07;145.48;;;56.80;;
46753;SDS011;32500;50.620;3.400;2024-03-06T02:19:39;145.70;;;56.35;;
46753;SDS011;32500;50.620;3.400;2024-03-06T02:22:05;145.48;;;56.10;;
46753;SDS011;32500;50.620;3.400;2024-03-06T02:24:32;145.75;;;56.45;;
46753;SDS011;32500;50.620;3.400;2024-03-06T02:26:58;146.32;;;56.33;;
46753;SDS011;32500;50.620;3.400;2024-03-06T02:29:23;145.05;;;56.42;;
46753;SDS011;32500;50.620;3.400;2024-03-06T02:31:49;144.65;;;56.50;;
46753;SDS011;32500;50.620;3.400;2024-03-06T02:34:15;145.50;;;56.33;;
46753;SDS011;32500;50.620;3.400;2024-03-06T02:36:40;144.98;;;56.28;;
46753;SDS011;32500;50.620;3.400;2024-03-06T02:39:06;144.45;;;55.97;;
46753;SDS011;32500;50.620;3.400;2024-03-06T02:41:34;145.30;;;56.15;;
46753;SDS011;32500;50.620;3.400;2024-03-06T02:44:03;145.57;;;56.42;;
46753;SDS011;32500;50.620;3.400;2024-03-06T02:46:29;146.82;;;56.80;;
46753;SDS011;32500;50.620;3.400;2024-03-06T02:48:54;144.77;;;56.33;;
46753;SDS011;32500;50.620;3.400;2024-03-06T02:51:20;144.70;;;56.10;;
46753;SDS011;32500;50.620;3.400;2024-03-06T02:53:47;144.73;;;56.10;;
46753;SDS011;32500;50.620;3.400;2024-03-06T02:56:20;144.13;;;56.25;;
46753;SDS011;32500;50.620;3.400;2024-03-06T02:58:46;145.15;;;56.25;;
46753;SDS011;32500;50.620;3.400;2024-03-06T03:01:11;144.15;;;56.10;;
46753;SDS011;32500;50.620;3.400;2024-03-06T03:03:41;143.60;;;55.72;;
46753;SDS011;32500;50.620;3.400;2024-03-06T03:06:09;144.90;;;56.00;;
46753;SDS011;32500;50.620;3.400;2024-03-06T03:08:35;145.13;;;56.03;;
46753;SDS011;32500;50.620;3.400;2024-03-06T03:11:02;145.35;;;56.30;;
46753;SDS011;32500;50.620;3.400;2024-03-06T03:13:28;143.57;;;56.03;;
46753;SDS011;32500;50.620;3.400;2024-03-06T03:15:53;144.80;;;55.88;;
46753;SDS011;32500;50.620;3.400;2024-03-06T03:18:19;144.07;;;56.05;;
46753;SDS011;32500;50.620;3.400;2024-03-06T03:20:45;143.25;;;55.67;;
46753;SDS011;32500;50.620;3.400;2024-03-06T03:23:10;144.55;;;55.92;;
46753;SDS011;32500;50.620;3.400;2024-03-06T03:25:39;144.27;;;55.78;;
46753;SDS011;32500;50.620;3.400;2024-03-06T03:28:05;143.93;;;56.10;;
46753;SDS011;32500;50.620;3.400;2024-03-06T03:30:31;144.05;;;56.10;;
46753;SDS011;32500;50.620;3.400;2024-03-06T03:32:57;143.30;;;55.83;;
46753;SDS011;32500;50.620;3.400;2024-03-06T03:35:23;144.52;;;55.90;;
46753;SDS011;32500;50.620;3.400;2024-03-06T03:37:53;143.80;;;55.90;;
46753;SDS011;32500;50.620;3.400;2024-03-06T03:40:20;144.95;;;55.92;;
46753;SDS011;32500;50.620;3.400;2024-03-06T03:42:46;143.10;;;55.55;;
46753;SDS011;32500;50.620;3.400;2024-03-06T03:45:12;143.13;;;55.70;;
46753;SDS011;32500;50.620;3.400;2024-03-06T03:47:38;143.32;;;55.45;;
46753;SDS011;32500;50.620;3.400;2024-03-06T03:50:04;142.43;;;55.45;;
46753;SDS011;32500;50.620;3.400;2024-03-06T03:52:30;143.63;;;55.83;;
46753;SDS011;32500;50.620;3.400;2024-03-06T03:54:56;143.80;;;55.78;;
46753;SDS011;32500;50.620;3.400;2024-03-06T03:57:22;144.27;;;55.90;;
46753;SDS011;32500;50.620;3.400;2024-03-06T03:59:47;143.18;;;55.60;;
46753;SDS011;32500;50.620;3.400;2024-03-06T04:02:13;144.25;;;55.75;;
46753;SDS011;32500;50.620;3.400;2024-03-06T04:04:39;144.18;;;55.85;;
46753;SDS011;32500;50.620;3.400;2024-03-06T04:07:05;143.50;;;55.80;;
46753;SDS011;32500;50.620;3.400;2024-03-06T04:09:32;143.23;;;55.30;;
46753;SDS011;32500;50.620;3.400;2024-03-06T04:12:01;142.68;;;55.70;;
46753;SDS011;32500;50.620;3.400;2024-03-06T04:14:27;142.38;;;55.13;;
46753;SDS011;32500;50.620;3.400;2024-03-06T04:16:53;142.75;;;55.22;;
46753;SDS011;32500;50.620;3.400;2024-03-06T04:19:18;142.20;;;54.97;;
46753;SDS011;32500;50.620;3.400;2024-03-06T04:21:44;143.20;;;55.28;;
46753;SDS011;32500;50.620;3.400;2024-03-06T04:24:10;143.50;;;55.53;;
46753;SDS011;32500;50.620;3.400;2024-03-06T04:26:35;142.60;;;55.35;;
46753;SDS011;32500;50.620;3.400;2024-03-06T04:29:01;142.38;;;55.25;;
46753;SDS011;32500;50.620;3.400;2024-03-06T04:31:28;144.73;;;55.78;;
46753;SDS011;32500;50.620;3.400;2024-03-06T04:33:53;144.43;;;55.83;;
46753;SDS011;32500;50.620;3.400;2024-03-06T04:36:19;144.23;;;55.78;;
46753;SDS011;32500;50.620;3.400;2024-03-06T04:38:45;143.70;;;55.35;;
46753;SDS011;32500;50.620;3.400;2024-03-06T04:41:11;142.60;;;55.45;;
46753;SDS011;32500;50.620;3.400;2024-03-06T04:43:37;143.45;;;56.00;;
46753;SDS011;32500;50.620;3.400;2024-03-06T04:46:03;143.93;;;55.72;;
46753;SDS011;32500;50.620;3.400;2024-03-06T04:48:29;142.35;;;55.20;;
46753;SDS011;32500;50.620;3.400;2024-03-06T04:50:55;143.35;;;55.97;;
46753;SDS011;32500;50.620;3.400;2024-03-06T04:53:21;142.30;;;55.17;;
46753;SDS011;32500;50.620;3.400;2024-03-06T04:55:46;142.40;;;55.22;;
46753;SDS011;32500;50.620;3.400;2024-03-06T04:58:12;144.02;;;55.75;;
46753;SDS011;32500;50.620;3.400;2024-03-06T05:00:38;142.70;;;55.40;;
46753;SDS011;32500;50.620;3.400;2024-03-06T05:03:04;141.95;;;55.22;;
46753;SDS011;32500;50.620;3.400;2024-03-06T05:05:30;143.85;;;55.88;;
46753;SDS011;32500;50.620;3.400;2024-03-06T05:07:57;143.77;;;55.35;;
46753;SDS011;32500;50.620;3.400;2024-03-06T05:10:23;144.30;;;55.63;;
46753;SDS011;32500;50.620;3.400;2024-03-06T05:12:48;142.68;;;55.20;;
46753;SDS011;32500;50.620;3.400;2024-03-06T05:15:15;142.10;;;55.42;;
46753;SDS011;32500;50.620;3.400;2024-03-06T05:17:41;142.88;;;55.70;;
46753;SDS011;32500;50.620;3.400;2024-03-06T05:20:07;143.05;;;55.53;;
46753;SDS011;32500;50.620;3.400;2024-03-06T05:22:33;142.50;;;55.22;;
46753;SDS011;32500;50.620;3.400;2024-03-06T05:24:58;143.73;;;55.80;;
46753;SDS011;32500;50.620;3.400;2024-03-06T05:27:24;141.15;;;54.90;;
46753;SDS011;32500;50.620;3.400;2024-03-06T05:29:51;142.50;;;55.53;;
46753;SDS011;32500;50.620;3.400;2024-03-06T05:32:17;142.20;;;55.33;;
46753;SDS011;32500;50.620;3.400;2024-03-06T05:34:43;141.45;;;55.05;;
46753;SDS011;32500;50.620;3.400;2024-03-06T05:37:09;144.00;;;55.17;;
46753;SDS011;32500;50.620;3.400;2024-03-06T05:39:35;141.93;;;55.20;;
46753;SDS011;32500;50.620;3.400;2024-03-06T05:42:02;142.73;;;55.47;;
46753;SDS011;32500;50.620;3.400;2024-03-06T05:44:31;142.45;;;55.42;;
46753;SDS011;32500;50.620;3.400;2024-03-06T05:46:58;142.07;;;55.08;;
46753;SDS011;32500;50.620;3.400;2024-03-06T05:49:25;141.85;;;55.08;;
46753;SDS011;32500;50.620;3.400;2024-03-06T05:51:51;143.07;;;55.30;;
46753;SDS011;32500;50.620;3.400;2024-03-06T05:54:18;141.32;;;55.05;;
46753;SDS011;32500;50.620;3.400;2024-03-06T05:56:44;142.05;;;55.28;;
46753;SDS011;32500;50.620;3.400;2024-03-06T05:59:10;142.05;;;55.40;;
46753;SDS011;32500;50.620;3.400;2024-03-06T06:01:36;141.50;;;54.92;;
46753;SDS011;32500;50.620;3.400;2024-03-06T06:04:02;141.75;;;55.05;;
46753;SDS011;32500;50.620;3.400;2024-03-06T06:06:27;142.45;;;55.45;;
46753;SDS011;32500;50.620;3.400;2024-03-06T06:08:53;142.45;;;55.30;;
46753;SDS011;32500;50.620;3.400;2024-03-06T06:11:19;142.32;;;55.17;;
46753;SDS011;32500;50.620;3.400;2024-03-06T06:13:45;142.75;;;55.30;;
46753;SDS011;32500;50.620;3.400;2024-03-06T06:16:10;141.70;;;55.03;;
46753;SDS011;32500;50.620;3.400;2024-03-06T06:18:37;141.30;;;55.03;;
46753;SDS011;32500;50.620;3.400;2024-03-06T06:21:02;143.68;;;55.40;;
46753;SDS011;32500;50.620;3.400;2024-03-06T06:23:32;142.23;;;55.42;;
46753;SDS011;32500;50.620;3.400;2024-03-06T06:25:58;145.65;;;55.67;;
46753;SDS011;32500;50.620;3.400;2024-03-06T06:28:23;142.38;;;54.92;;
46753;SDS011;32500;50.620;3.400;2024-03-06T06:30:49;140.75;;;54.88;;
46753;SDS011;32500;50.620;3.400;2024-03-06T06:33:17;142.25;;;55.33;;
46753;SDS011;32500;50.620;3.400;2024-03-06T06:35:44;143.02;;;55.38;;
46753;SDS011;32500;50.620;3.400;2024-03-06T06:38:12;141.55;;;54.97;;
46753;SDS011;32500;50.620;3.400;2024-03-06T06:40:38;141.65;;;55.03;;
46753;SDS011;32500;50.620;3.400;2024-03-06T06:43:05;141.65;;;55.08;;
46753;SDS011;32500;50.620;3.400;2024-03-06T06:45:31;143.02;;;55.22;;
46753;SDS011;32500;50.620;3.400;2024-03-06T06:47:57;142.55;;;55.38;;
46753;SDS011;32500;50.620;3.400;2024-03-06T06:50:23;141.70;;;55.05;;
46753;SDS011;32500;50.620;3.400;2024-03-06T06:52:51;142.30;;;55.53;;
46753;SDS011;32500;50.620;3.400;2024-03-06T06:55:17;141.63;;;55.22;;
46753;SDS011;32500;50.620;3.400;2024-03-06T06:57:42;142.23;;;55.35;;
46753;SDS011;32500;50.620;3.400;2024-03-06T07:00:09;141.77;;;55.40;;
46753;SDS011;32500;50.620;3.400;2024-03-06T07:02:38;141.20;;;55.00;;
46753;SDS011;32500;50.620;3.400;2024-03-06T07:05:06;141.10;;;54.60;;
46753;SDS011;32500;50.620;3.400;2024-03-06T07:07:33;142.93;;;54.85;;
46753;SDS011;32500;50.620;3.400;2024-03-06T07:09:59;143.45;;;55.13;;
46753;SDS011;32500;50.620;3.400;2024-03-06T07:12:24;141.05;;;54.83;;
46753;SDS011;32500;50.620;3.400;2024-03-06T07:14:50;142.60;;;55.28;;
46753;SDS011;32500;50.620;3.400;2024-03-06T07:17:16;147.00;;;55.58;;
46753;SDS011;32500;50.620;3.400;2024-03-06T07:19:41;142.82;;;56.72;;
46753;SDS011;32500;50.620;3.400;2024-03-06T07:22:07;140.82;;;55.95;;
46753;SDS011;32500;50.620;3.400;2024-03-06T07:24:33;141.15;;;56.28;;
46753;SDS011;32500;50.620;3.400;2024-03-06T07:26:59;142.68;;;56.33;;
46753;SDS011;32500;50.620;3.400;2024-03-06T07:29:26;144.07;;;56.65;;
46753;SDS011;32500;50.620;3.400;2024-03-06T07:31:52;140.48;;;56.38;;
46753;SDS011;32500;50.620;3.400;2024-03-06T07:34:18;140.43;;;56.15;;
46753;SDS011;32500;50.620;3.400;2024-03-06T07:36:46;143.65;;;56.45;;
46753;SDS011;32500;50.620;3.400;2024-03-06T07:39:12;143.13;;;56.88;;
46753;SDS011;32500;50.620;3.400;2024-03-06T07:41:40;139.30;;;56.25;;
46753;SDS011;32500;50.620;3.400;2024-03-06T07:44:06;139.77;;;56.33;;
46753;SDS011;32500;50.620;3.400;2024-03-06T07:46:32;140.95;;;56.00;;
46753;SDS011;32500;50.620;3.400;2024-03-06T07:48:58;142.00;;;56.17;;
46753;SDS011;32500;50.620;3.400;2024-03-06T07:51:23;141.07;;;55.80;;
46753;SDS011;32500;50.620;3.400;2024-03-06T07:53:49;140.75;;;56.03;;
46753;SDS011;32500;50.620;3.400;2024-03-06T07:56:15;139.27;;;56.22;;
46753;SDS011;32500;50.620;3.400;2024-03-06T07:58:42;140.18;;;56.17;;
46753;SDS011;32500;50.620;3.400;2024-03-06T08:01:07;139.70;;;56.28;;
46753;SDS011;32500;50.620;3.400;2024-03-06T08:03:33;141.85;;;56.53;;
46753;SDS011;32500;50.620;3.400;2024-03-06T08:05:59;141.02;;;56.20;;
46753;SDS011;32500;50.620;3.400;2024-03-06T08:08:25;140.88;;;56.33;;
46753;SDS011;32500;50.620;3.400;2024-03-06T08:10:51;140.30;;;56.38;;
46753;SDS011;32500;50.620;3.400;2024-03-06T08:13:16;139.52;;;56.00;;
46753;SDS011;32500;50.620;3.400;2024-03-06T08:15:45;140.55;;;55.65;;
46753;SDS011;32500;50.620;3.400;2024-03-06T08:18:12;144.55;;;56.38;;
46753;SDS011;32500;50.620;3.400;2024-03-06T08:20:40;142.25;;;56.28;;
46753;SDS011;32500;50.620;3.400;2024-03-06T08:23:07;141.30;;;56.45;;
46753;SDS011;32500;50.620;3.400;2024-03-06T08:25:36;143.65;;;55.90;;
46753;SDS011;32500;50.620;3.400;2024-03-06T08:28:02;141.77;;;56.13;;
46753;SDS011;32500;50.620;3.400;2024-03-06T08:30:30;142.80;;;56.30;;
46753;SDS011;32500;50.620;3.400;2024-03-06T08:32:56;142.02;;;56.47;;
46753;SDS011;32500;50.620;3.400;2024-03-06T08:35:22;140.43;;;56.40;;
46753;SDS011;32500;50.620;3.400;2024-03-06T08:37:49;148.77;;;56.80;;
46753;SDS011;32500;50.620;3.400;2024-03-06T08:40:15;144.02;;;56.78;;
46753;SDS011;32500;50.620;3.400;2024-03-06T08:42:48;142.13;;;55.60;;
46753;SDS011;32500;50.620;3.400;2024-03-06T08:45:15;141.80;;;56.55;;
46753;SDS011;32500;50.620;3.400;2024-03-06T08:47:42;141.18;;;56.70;;
46753;SDS011;32500;50.620;3.400;2024-03-06T08:50:09;141.32;;;56.50;;
46753;SDS011;32500;50.620;3.400;2024-03-06T08:52:38;142.43;;;56.78;;
46753;SDS011;32500;50.620;3.400;2024-03-06T08:55:04;142.35;;;56.78;;
46753;SDS011;32500;50.620;3.400;2024-03-06T08:57:32;143.52;;;57.28;;
46753;SDS011;32500;50.620;3.400;2024-03-06T09:02:26;143.25;;;57.08;;
46753;SDS011;32500;50.620;3.400;2024-03-06T09:04:52;143.43;;;57.17;;
46753;SDS011;32500;50.620;3.400;2024-03-06T09:07:18;144.18;;;56.63;;
46753;SDS011;32500;50.620;3.400;2024-03-06T09:09:45;144.23;;;56.78;;
46753;SDS011;32500;50.620;3.400;2024-03-06T09:12:11;142.55;;;57.20;;
46753;SDS011;32500;50.620;3.400;2024-03-06T09:14:37;141.77;;;56.92;;
46753;SDS011;32500;50.620;3.400;2024-03-06T09:17:04;141.98;;;57.03;;
46753;SDS011;32500;50.620;3.400;2024-03-06T09:19:30;141.60;;;56.67;;
46753;SDS011;32500;50.620;3.400;2024-03-06T09:21:57;141.38;;;56.67;;
46753;SDS011;32500;50.620;3.400;2024-03-06T09:24:23;144.02;;;57.80;;
46753;SDS011;32500;50.620;3.400;2024-03-06T09:26:53;141.88;;;56.83;;
46753;SDS011;32500;50.620;3.400;2024-03-06T09:29:19;142.00;;;57.15;;
46753;SDS011;32500;50.620;3.400;2024-03-06T09:31:45;142.85;;;57.20;;
46753;SDS011;32500;50.620;3.400;2024-03-06T09:34:13;141.00;;;56.70;;
46753;SDS011;32500;50.620;3.400;2024-03-06T09:36:45;144.25;;;57.45;;
46753;SDS011;32500;50.620;3.400;2024-03-06T09:39:14;142.25;;;57.28;;
46753;SDS011;32500;50.620;3.400;2024-03-06T09:41:48;143.52;;;57.45;;
46753;SDS011;32500;50.620;3.400;2024-03-06T09:46:46;143.68;;;57.80;;
46753;SDS011;32500;50.620;3.400;2024-03-06T09:49:14;144.18;;;58.15;;
46753;SDS011;32500;50.620;3.400;2024-03-06T09:51:44;146.15;;;58.45;;
46753;SDS011;32500;50.620;3.400;2024-03-06T09:54:11;146.90;;;58.30;;
46753;SDS011;32500;50.620;3.400;2024-03-06T09:56:41;145.73;;;56.90;;
46753;SDS011;32500;50.620;3.400;2024-03-06T09:59:11;146.13;;;58.42;;
46753;SDS011;32500;50.620;3.400;2024-03-06T10:01:56;143.98;;;57.25;;
46753;SDS011;32500;50.620;3.400;2024-03-06T10:04:23;144.80;;;56.75;;
46753;SDS011;32500;50.620;3.400;2024-03-06T10:06:50;147.35;;;56.83;;
46753;SDS011;32500;50.620;3.400;2024-03-06T10:09:27;145.30;;;56.67;;
46753;SDS011;32500;50.620;3.400;2024-03-06T10:11:54;147.35;;;57.08;;
46753;SDS011;32500;50.620;3.400;2024-03-06T10:14:21;148.75;;;57.97;;
46753;SDS011;32500;50.620;3.400;2024-03-06T10:17:00;144.60;;;57.05;;
46753;SDS011;32500;50.620;3.400;2024-03-06T10:19:27;145.35;;;57.42;;
46753;SDS011;32500;50.620;3.400;2024-03-06T10:21:54;145.00;;;57.30;;
46753;SDS011;32500;50.620;3.400;2024-03-06T10:24:22;144.70;;;56.42;;
46753;SDS011;32500;50.620;3.400;2024-03-06T10:26:54;144.60;;;56.50;;
46753;SDS011;32500;50.620;3.400;2024-03-06T10:29:22;146.48;;;57.20;;
46753;SDS011;32500;50.620;3.400;2024-03-06T10:31:56;146.32;;;57.47;;
46753;SDS011;32500;50.620;3.400;2024-03-06T10:34:24;145.48;;;56.60;;
46753;SDS011;32500;50.620;3.400;2024-03-06T10:36:53;145.38;;;56.53;;
46753;SDS011;32500;50.620;3.400;2024-03-06T10:39:24;148.02;;;57.33;;
46753;SDS011;32500;50.620;3.400;2024-03-06T10:41:56;145.98;;;56.92;;
46753;SDS011;32500;50.620;3.400;2024-03-06T10:44:23;146.93;;;57.40;;
46753;SDS011;32500;50.620;3.400;2024-03-06T10:49:30;147.02;;;57.10;;
46753;SDS011;32500;50.620;3.400;2024-03-06T10:51:59;147.13;;;57.60;;
46753;SDS011;32500;50.620;3.400;2024-03-06T10:54:29;146.63;;;56.53;;
46753;SDS011;32500;50.620;3.400;2024-03-06T10:56:57;146.90;;;57.08;;
46753;SDS011;32500;50.620;3.400;2024-03-06T10:59:27;146.27;;;56.47;;
46753;SDS011;32500;50.620;3.400;2024-03-06T11:01:54;147.85;;;57.33;;
46753;SDS011;32500;50.620;3.400;2024-03-06T11:04:22;145.70;;;56.65;;
46753;SDS011;32500;50.620;3.400;2024-03-06T11:06:59;147.25;;;56.67;;
46753;SDS011;32500;50.620;3.400;2024-03-06T11:09:34;147.93;;;57.03;;
46753;SDS011;32500;50.620;3.400;2024-03-06T11:12:03;150.18;;;56.08;;
46753;SDS011;32500;50.620;3.400;2024-03-06T11:14:32;147.48;;;56.60;;
46753;SDS011;32500;50.620;3.400;2024-03-06T11:19:27;152.82;;;56.90;;
46753;SDS011;32500;50.620;3.400;2024-03-06T11:21:56;148.35;;;57.20;;
46753;SDS011;32500;50.620;3.400;2024-03-06T11:24:23;148.32;;;56.83;;
46753;SDS011;32500;50.620;3.400;2024-03-06T11:26:56;145.82;;;56.22;;
46753;SDS011;32500;50.620;3.400;2024-03-06T11:29:23;150.88;;;56.90;;
46753;SDS011;32500;50.620;3.400;2024-03-06T11:32:05;148.48;;;57.00;;
46753;SDS011;32500;50.620;3.400;2024-03-06T11:34:33;147.65;;;56.60;;
46753;SDS011;32500;50.620;3.400;2024-03-06T11:37:03;148.05;;;56.47;;
46753;SDS011;32500;50.620;3.400;2024-03-06T11:39:33;149.40;;;56.50;;
46753;SDS011;32500;50.620;3.400;2024-03-06T11:42:04;146.90;;;57.00;;
46753;SDS011;32500;50.620;3.400;2024-03-06T11:44:33;150.10;;;56.72;;
46753;SDS011;32500;50.620;3.400;2024-03-06T11:47:03;153.30;;;56.88;;
46753;SDS011;32500;50.620;3.400;2024-03-06T11:49:32;149.27;;;57.55;;
46753;SDS011;32500;50.620;3.400;2024-03-06T11:52:03;147.90;;;57.83;;
46753;SDS011;32500;50.620;3.400;2024-03-06T11:54:31;148.02;;;57.20;;
46753;SDS011;32500;50.620;3.400;2024-03-06T11:56:58;147.45;;;56.83;;
46753;SDS011;32500;50.620;3.400;2024-03-06T11:59:31;150.55;;;57.90;;
46753;SDS011;32500;50.620;3.400;2024-03-06T12:02:03;149.52;;;57.67;;
46753;SDS011;32500;50.620;3.400;2024-03-06T12:04:30;147.45;;;56.95;;
46753;SDS011;32500;50.620;3.400;2024-03-06T12:07:02;149.98;;;57.42;;
46753;SDS011;32500;50.620;3.400;2024-03-06T12:09:30;148.43;;;57.40;;
46753;SDS011;32500;50.620;3.400;2024-03-06T12:11:58;148.00;;;57.63;;
46753;SDS011;32500;50.620;3.400;2024-03-06T12:14:23;149.02;;;57.33;;
46753;SDS011;32500;50.620;3.400;2024-03-06T12:16:59;148.35;;;57.70;;
46753;SDS011;32500;50.620;3.400;2024-03-06T12:19:31;151.75;;;58.08;;
46753;SDS011;32500;50.620;3.400;2024-03-06T12:22:01;149.73;;;58.42;;
46753;SDS011;32500;50.620;3.400;2024-03-06T12:24:29;150.38;;;57.75;;
46753;SDS011;32500;50.620;3.400;2024-03-06T12:27:05;152.13;;;58.50;;
46753;SDS011;32500;50.620;3.400;2024-03-06T12:29:32;149.95;;;58.08;;
46753;SDS011;32500;50.620;3.400;2024-03-06T12:32:00;153.98;;;58.95;;
46753;SDS011;32500;50.620;3.400;2024-03-06T12:34:26;149.88;;;58.33;;
46753;SDS011;32500;50.620;3.400;2024-03-06T12:36:52;151.38;;;58.38;;
46753;SDS011;32500;50.620;3.400;2024-03-06T12:39:18;150.68;;;58.65;;
46753;SDS011;32500;50.620;3.400;2024-03-06T12:41:48;150.38;;;57.95;;
46753;SDS011;32500;50.620;3.400;2024-03-06T12:44:14;150.93;;;57.08;;
46753;SDS011;32500;50.620;3.400;2024-03-06T12:46:40;150.40;;;56.22;;
46753;SDS011;32500;50.620;3.400;2024-03-06T12:49:06;149.52;;;56.35;;
46753;SDS011;32500;50.620;3.400;2024-03-06T12:51:31;155.57;;;56.85;;
46753;SDS011;32500;50.620;3.400;2024-03-06T12:53:57;150.68;;;56.83;;
46753;SDS011;32500;50.620;3.400;2024-03-06T12:56:23;150.65;;;56.50;;
46753;SDS011;32500;50.620;3.400;2024-03-06T12:58:50;150.10;;;56.83;;
46753;SDS011;32500;50.620;3.400;2024-03-06T13:01:17;152.13;;;57.03;;
46753;SDS011;32500;50.620;3.400;2024-03-06T13:03:42;153.25;;;57.17;;
46753;SDS011;32500;50.620;3.400;2024-03-06T13:06:08;151.05;;;56.67;;
46753;SDS011;32500;50.620;3.400;2024-03-06T13:08:35;152.63;;;56.97;;
46753;SDS011;32500;50.620;3.400;2024-03-06T13:11:01;152.57;;;57.22;;
46753;SDS011;32500;50.620;3.400;2024-03-06T13:13:27;152.85;;;57.42;;
46753;SDS011;32500;50.620;3.400;2024-03-06T13:15:57;150.13;;;56.78;;
46753;SDS011;32500;50.620;3.400;2024-03-06T13:18:23;151.52;;;56.97;;
46753;SDS011;32500;50.620;3.400;2024-03-06T13:20:50;152.43;;;56.75;;
46753;SDS011;32500;50.620;3.400;2024-03-06T13:25:44;154.23;;;57.13;;
46753;SDS011;32500;50.620;3.400;2024-03-06T13:28:11;152.10;;;57.42;;
46753;SDS011;32500;50.620;3.400;2024-03-06T13:30:37;152.73;;;57.08;;
46753;SDS011;32500;50.620;3.400;2024-03-06T13:33:04;153.93;;;57.47;;
46753;SDS011;32500;50.620;3.400;2024-03-06T13:35:30;154.10;;;57.42;;
46753;SDS011;32500;50.620;3.400;2024-03-06T13:37:56;153.05;;;57.45;;
46753;SDS011;32500;50.620;3.400;2024-03-06T13:40:22;156.25;;;57.25;;
46753;SDS011;32500;50.620;3.400;2024-03-06T13:42:47;155.52;;;57.33;;
46753;SDS011;32500;50.620;3.400;2024-03-06T13:45:13;155.32;;;57.25;;
46753;SDS011;32500;50.620;3.400;2024-03-06T13:47:42;153.05;;;57.33;;
46753;SDS011;32500;50.620;3.400;2024-03-06T13:50:12;154.65;;;57.05;;
46753;SDS011;32500;50.620;3.400;2024-03-06T13:52:39;152.15;;;57.17;;
46753;SDS011;32500;50.620;3.400;2024-03-06T13:55:06;151.95;;;57.25;;
46753;SDS011;32500;50.620;3.400;2024-03-06T13:57:36;151.98;;;56.97;;
46753;SDS011;32500;50.620;3.400;2024-03-06T14:00:03;154.98;;;57.42;;
46753;SDS011;32500;50.620;3.400;2024-03-06T14:02:31;152.23;;;56.63;;
46753;SDS011;32500;50.620;3.400;2024-03-06T14:04:57;153.45;;;57.53;;
46753;SDS011;32500;50.620;3.400;2024-03-06T14:07:23;153.88;;;57.20;;
46753;SDS011;32500;50.620;3.400;2024-03-06T14:09:52;154.55;;;57.28;;
46753;SDS011;32500;50.620;3.400;2024-03-06T14:12:18;151.43;;;57.20;;
46753;SDS011;32500;50.620;3.400;2024-03-06T14:14:43;152.25;;;57.13;;
46753;SDS011;32500;50.620;3.400;2024-03-06T14:17:12;156.18;;;57.72;;
46753;SDS011;32500;50.620;3.400;2024-03-06T14:19:38;153.73;;;57.33;;